sensor_id;sensor_type;location;lat;lon;timestamp;P1;durP1;ratioP1;P2;durP2;ratioP2
74624;SDS011;63131;52.298;8.056;2023-05-07T00:01:12;18.83;;;9.00;;
74624;SDS011;63131;52.298;8.056;2023-05-07T00:03:37;15.60;;;9.70;;
74624;SDS011;63131;52.298;8.056;2023-05-07T00:06:03;21.52;;;11.27;;
74624;SDS011;63131;52.298;8.056;2023-05-07T00:08:28;19.30;;;10.75;;
74624;SDS011;63131;52.298;8.056;2023-05-07T00:10:54;18.70;;;10.35;;
74624;SDS011;63131;52.298;8.056;2023-05-07T00:13:19;18.63;;;10.73;;
74624;SDS011;63131;52.298;8.056;2023-05-07T00:15:44;18.73;;;11.07;;
74624;SDS011;63131;52.298;8.056;2023-05-07T00:18:10;21.58;;;12.20;;
74624;SDS011;63131;52.298;8.056;2023-05-07T00:20:35;17.73;;;10.15;;
74624;SDS011;63131;52.298;8.056;2023-05-07T00:23:00;17.63;;;11.32;;
74624;SDS011;63131;52.298;8.056;2023-05-07T00:25:26;20.40;;;11.25;;
74624;SDS011;63131;52.298;8.056;2023-05-07T00:27:51;21.55;;;11.05;;
74624;SDS011;63131;52.298;8.056;2023-05-07T00:30:16;20.05;;;11.52;;
74624;SDS011;63131;52.298;8.056;2023-05-07T00:32:42;18.13;;;10.73;;
74624;SDS011;63131;52.298;8.056;2023-05-07T00:35:10;22.38;;;11.73;;
74624;SDS011;63131;52.298;8.056;2023-05-07T00:37:35;19.75;;;11.27;;
74624;SDS011;63131;52.298;8.056;2023-05-07T00:40:00;19.55;;;10.88;;
74624;SDS011;63131;52.298;8.056;2023-05-07T00:42:29;20.73;;;10.95;;
74624;SDS011;63131;52.298;8.056;2023-05-07T00:44:54;21.25;;;11.88;;
74624;SDS011;63131;52.298;8.056;2023-05-07T00:47:20;21.38;;;11.77;;
74624;SDS011;63131;52.298;8.056;2023-05-07T00:52:11;20.17;;;12.13;;
74624;SDS011;63131;52.298;8.056;2023-05-07T00:54:39;21.85;;;12.38;;
74624;SDS011;63131;52.298;8.056;2023-05-07T00:57:05;22.20;;;12.30;;
74624;SDS011;63131;52.298;8.056;2023-05-07T00:59:31;23.23;;;12.77;;
74624;SDS011;63131;52.298;8.056;2023-05-07T01:04:22;20.87;;;10.90;;
74624;SDS011;63131;52.298;8.056;2023-05-07T01:06:47;22.55;;;12.90;;
74624;SDS011;63131;52.298;8.056;2023-05-07T01:09:14;22.00;;;11.60;;
74624;SDS011;63131;52.298;8.056;2023-05-07T01:11:41;21.05;;;11.82;;
74624;SDS011;63131;52.298;8.056;2023-05-07T01:14:07;23.75;;;11.82;;
74624;SDS011;63131;52.298;8.056;2023-05-07T01:16:33;23.88;;;13.95;;
74624;SDS011;63131;52.298;8.056;2023-05-07T01:18:59;20.67;;;12.52;;
74624;SDS011;63131;52.298;8.056;2023-05-07T01:23:51;22.38;;;11.40;;
74624;SDS011;63131;52.298;8.056;2023-05-07T01:28:44;22.02;;;12.05;;
74624;SDS011;63131;52.298;8.056;2023-05-07T01:31:09;23.48;;;13.35;;
74624;SDS011;63131;52.298;8.056;2023-05-07T01:33:35;26.50;;;14.27;;
74624;SDS011;63131;52.298;8.056;2023-05-07T01:36:02;23.35;;;12.88;;
74624;SDS011;63131;52.298;8.056;2023-05-07T01:38:31;28.00;;;15.50;;
74624;SDS011;63131;52.298;8.056;2023-05-07T01:40:56;21.60;;;13.27;;
74624;SDS011;63131;52.298;8.056;2023-05-07T01:43:22;27.65;;;14.07;;
74624;SDS011;63131;52.298;8.056;2023-05-07T01:45:47;22.23;;;13.35;;
74624;SDS011;63131;52.298;8.056;2023-05-07T01:48:14;26.92;;;15.10;;
74624;SDS011;63131;52.298;8.056;2023-05-07T01:50:39;24.63;;;13.65;;
74624;SDS011;63131;52.298;8.056;2023-05-07T01:53:05;24.75;;;14.40;;
74624;SDS011;63131;52.298;8.056;2023-05-07T01:55:31;27.75;;;15.10;;
74624;SDS011;63131;52.298;8.056;2023-05-07T01:57:56;27.25;;;14.50;;
74624;SDS011;63131;52.298;8.056;2023-05-07T02:00:22;21.92;;;13.73;;
74624;SDS011;63131;52.298;8.056;2023-05-07T02:02:47;26.42;;;14.65;;
74624;SDS011;63131;52.298;8.056;2023-05-07T02:05:13;27.52;;;14.90;;
74624;SDS011;63131;52.298;8.056;2023-05-07T02:07:38;24.00;;;13.85;;
74624;SDS011;63131;52.298;8.056;2023-05-07T02:10:03;25.67;;;14.98;;
74624;SDS011;63131;52.298;8.056;2023-05-07T02:12:30;24.95;;;14.35;;
74624;SDS011;63131;52.298;8.056;2023-05-07T02:14:55;29.33;;;15.15;;
74624;SDS011;63131;52.298;8.056;2023-05-07T02:17:20;27.33;;;14.90;;
74624;SDS011;63131;52.298;8.056;2023-05-07T02:19:46;29.60;;;16.52;;
74624;SDS011;63131;52.298;8.056;2023-05-07T02:22:11;27.83;;;14.77;;
74624;SDS011;63131;52.298;8.056;2023-05-07T02:24:36;28.05;;;15.50;;
74624;SDS011;63131;52.298;8.056;2023-05-07T02:27:02;29.55;;;16.20;;
74624;SDS011;63131;52.298;8.056;2023-05-07T02:29:28;30.95;;;16.13;;
74624;SDS011;63131;52.298;8.056;2023-05-07T02:31:53;28.00;;;15.63;;
74624;SDS011;63131;52.298;8.056;2023-05-07T02:34:19;25.98;;;14.98;;
74624;SDS011;63131;52.298;8.056;2023-05-07T02:36:44;29.15;;;15.93;;
74624;SDS011;63131;52.298;8.056;2023-05-07T02:39:10;30.80;;;16.48;;
74624;SDS011;63131;52.298;8.056;2023-05-07T02:41:36;29.65;;;15.88;;
74624;SDS011;63131;52.298;8.056;2023-05-07T02:44:02;30.08;;;16.38;;
74624;SDS011;63131;52.298;8.056;2023-05-07T02:46:27;30.63;;;16.38;;
74624;SDS011;63131;52.298;8.056;2023-05-07T02:48:52;30.10;;;15.05;;
74624;SDS011;63131;52.298;8.056;2023-05-07T02:53:44;32.40;;;16.10;;
74624;SDS011;63131;52.298;8.056;2023-05-07T02:56:10;25.98;;;15.38;;
74624;SDS011;63131;52.298;8.056;2023-05-07T02:58:35;29.60;;;16.23;;
74624;SDS011;63131;52.298;8.056;2023-05-07T03:01:01;28.23;;;15.82;;
74624;SDS011;63131;52.298;8.056;2023-05-07T03:03:26;30.75;;;16.45;;
74624;SDS011;63131;52.298;8.056;2023-05-07T03:05:51;31.83;;;17.25;;
74624;SDS011;63131;52.298;8.056;2023-05-07T03:08:17;28.67;;;16.15;;
74624;SDS011;63131;52.298;8.056;2023-05-07T03:13:07;31.27;;;18.27;;
74624;SDS011;63131;52.298;8.056;2023-05-07T03:15:33;27.50;;;15.73;;
74624;SDS011;63131;52.298;8.056;2023-05-07T03:17:58;28.75;;;15.93;;
74624;SDS011;63131;52.298;8.056;2023-05-07T03:22:48;30.53;;;17.03;;
74624;SDS011;63131;52.298;8.056;2023-05-07T03:25:14;34.63;;;19.25;;
74624;SDS011;63131;52.298;8.056;2023-05-07T03:27:40;31.98;;;18.10;;
74624;SDS011;63131;52.298;8.056;2023-05-07T03:30:06;32.80;;;17.40;;
74624;SDS011;63131;52.298;8.056;2023-05-07T03:32:33;31.70;;;19.13;;
74624;SDS011;63131;52.298;8.056;2023-05-07T03:37:24;29.77;;;16.05;;
74624;SDS011;63131;52.298;8.056;2023-05-07T03:39:50;33.10;;;19.15;;
74624;SDS011;63131;52.298;8.056;2023-05-07T03:42:15;33.05;;;17.90;;
74624;SDS011;63131;52.298;8.056;2023-05-07T03:44:40;33.63;;;17.83;;
74624;SDS011;63131;52.298;8.056;2023-05-07T03:47:06;32.25;;;17.30;;
74624;SDS011;63131;52.298;8.056;2023-05-07T03:49:31;32.15;;;15.68;;
74624;SDS011;63131;52.298;8.056;2023-05-07T03:51:56;29.90;;;17.88;;
74624;SDS011;63131;52.298;8.056;2023-05-07T03:54:22;29.85;;;17.00;;
74624;SDS011;63131;52.298;8.056;2023-05-07T03:56:47;33.10;;;17.77;;
74624;SDS011;63131;52.298;8.056;2023-05-07T03:59:13;32.65;;;17.73;;
74624;SDS011;63131;52.298;8.056;2023-05-07T04:01:38;33.30;;;18.25;;
74624;SDS011;63131;52.298;8.056;2023-05-07T04:04:03;34.42;;;17.95;;
74624;SDS011;63131;52.298;8.056;2023-05-07T04:06:29;33.63;;;18.58;;
74624;SDS011;63131;52.298;8.056;2023-05-07T04:08:55;36.50;;;17.35;;
74624;SDS011;63131;52.298;8.056;2023-05-07T04:11:20;33.92;;;17.77;;
74624;SDS011;63131;52.298;8.056;2023-05-07T04:13:46;36.72;;;18.98;;
74624;SDS011;63131;52.298;8.056;2023-05-07T04:16:11;31.85;;;16.77;;
74624;SDS011;63131;52.298;8.056;2023-05-07T04:18:36;32.50;;;16.05;;
74624;SDS011;63131;52.298;8.056;2023-05-07T04:21:02;33.20;;;17.90;;
74624;SDS011;63131;52.298;8.056;2023-05-07T04:23:27;32.85;;;17.52;;
74624;SDS011;63131;52.298;8.056;2023-05-07T04:25:52;32.65;;;16.77;;
74624;SDS011;63131;52.298;8.056;2023-05-07T04:28:19;28.90;;;15.75;;
74624;SDS011;63131;52.298;8.056;2023-05-07T04:30:45;31.77;;;17.27;;
74624;SDS011;63131;52.298;8.056;2023-05-07T04:33:11;31.92;;;16.40;;
74624;SDS011;63131;52.298;8.056;2023-05-07T04:35:36;32.60;;;17.85;;
74624;SDS011;63131;52.298;8.056;2023-05-07T04:38:02;35.88;;;17.75;;
74624;SDS011;63131;52.298;8.056;2023-05-07T04:40:27;31.67;;;16.50;;
74624;SDS011;63131;52.298;8.056;2023-05-07T04:42:52;30.88;;;18.25;;
74624;SDS011;63131;52.298;8.056;2023-05-07T04:45:18;29.85;;;16.10;;
74624;SDS011;63131;52.298;8.056;2023-05-07T04:47:43;33.50;;;17.05;;
74624;SDS011;63131;52.298;8.056;2023-05-07T04:50:09;32.08;;;16.02;;
74624;SDS011;63131;52.298;8.056;2023-05-07T04:52:34;32.70;;;17.40;;
74624;SDS011;63131;52.298;8.056;2023-05-07T04:55:00;27.88;;;15.52;;
74624;SDS011;63131;52.298;8.056;2023-05-07T04:57:26;30.63;;;15.77;;
74624;SDS011;63131;52.298;8.056;2023-05-07T04:59:52;30.85;;;17.08;;
74624;SDS011;63131;52.298;8.056;2023-05-07T05:02:17;31.10;;;15.75;;
74624;SDS011;63131;52.298;8.056;2023-05-07T05:04:43;34.25;;;16.35;;
74624;SDS011;63131;52.298;8.056;2023-05-07T05:07:08;27.85;;;15.90;;
74624;SDS011;63131;52.298;8.056;2023-05-07T05:09:33;34.60;;;17.17;;
74624;SDS011;63131;52.298;8.056;2023-05-07T05:11:59;28.20;;;16.67;;
74624;SDS011;63131;52.298;8.056;2023-05-07T05:14:24;33.72;;;17.23;;
74624;SDS011;63131;52.298;8.056;2023-05-07T05:16:50;28.63;;;15.48;;
74624;SDS011;63131;52.298;8.056;2023-05-07T05:19:15;30.17;;;16.13;;
74624;SDS011;63131;52.298;8.056;2023-05-07T05:21:41;30.70;;;17.20;;
74624;SDS011;63131;52.298;8.056;2023-05-07T05:24:06;35.08;;;18.55;;
74624;SDS011;63131;52.298;8.056;2023-05-07T05:26:32;33.25;;;17.08;;
74624;SDS011;63131;52.298;8.056;2023-05-07T05:28:57;28.55;;;14.65;;
74624;SDS011;63131;52.298;8.056;2023-05-07T05:31:22;27.95;;;16.25;;
74624;SDS011;63131;52.298;8.056;2023-05-07T05:33:47;28.33;;;16.45;;
74624;SDS011;63131;52.298;8.056;2023-05-07T05:36:13;26.58;;;15.95;;
74624;SDS011;63131;52.298;8.056;2023-05-07T05:38:39;29.77;;;15.73;;
74624;SDS011;63131;52.298;8.056;2023-05-07T05:43:30;26.90;;;14.53;;
74624;SDS011;63131;52.298;8.056;2023-05-07T05:45:55;29.88;;;16.00;;
74624;SDS011;63131;52.298;8.056;2023-05-07T05:50:46;26.13;;;13.57;;
74624;SDS011;63131;52.298;8.056;2023-05-07T05:53:12;27.27;;;14.98;;
74624;SDS011;63131;52.298;8.056;2023-05-07T05:55:37;33.20;;;16.20;;
74624;SDS011;63131;52.298;8.056;2023-05-07T05:58:02;30.42;;;15.10;;
74624;SDS011;63131;52.298;8.056;2023-05-07T06:00:28;29.42;;;16.35;;
74624;SDS011;63131;52.298;8.056;2023-05-07T06:02:54;28.58;;;14.90;;
74624;SDS011;63131;52.298;8.056;2023-05-07T06:05:19;27.95;;;15.68;;
74624;SDS011;63131;52.298;8.056;2023-05-07T06:07:44;26.80;;;14.50;;
74624;SDS011;63131;52.298;8.056;2023-05-07T06:10:10;31.80;;;16.85;;
74624;SDS011;63131;52.298;8.056;2023-05-07T06:12:35;25.33;;;14.35;;
74624;SDS011;63131;52.298;8.056;2023-05-07T06:15:00;31.38;;;15.70;;
74624;SDS011;63131;52.298;8.056;2023-05-07T06:17:26;25.50;;;14.07;;
74624;SDS011;63131;52.298;8.056;2023-05-07T06:19:52;25.65;;;14.95;;
74624;SDS011;63131;52.298;8.056;2023-05-07T06:22:17;25.73;;;14.43;;
74624;SDS011;63131;52.298;8.056;2023-05-07T06:24:42;26.73;;;14.40;;
74624;SDS011;63131;52.298;8.056;2023-05-07T06:27:08;31.73;;;15.93;;
74624;SDS011;63131;52.298;8.056;2023-05-07T06:29:33;28.75;;;14.60;;
74624;SDS011;63131;52.298;8.056;2023-05-07T06:32:08;26.33;;;14.98;;
74624;SDS011;63131;52.298;8.056;2023-05-07T06:34:34;28.13;;;14.95;;
74624;SDS011;63131;52.298;8.056;2023-05-07T06:36:59;25.38;;;14.63;;
74624;SDS011;63131;52.298;8.056;2023-05-07T06:39:25;29.65;;;14.52;;
74624;SDS011;63131;52.298;8.056;2023-05-07T06:41:50;25.77;;;14.25;;
74624;SDS011;63131;52.298;8.056;2023-05-07T06:44:15;27.15;;;13.80;;
74624;SDS011;63131;52.298;8.056;2023-05-07T06:46:41;24.95;;;13.95;;
74624;SDS011;63131;52.298;8.056;2023-05-07T06:49:06;25.92;;;13.50;;
74624;SDS011;63131;52.298;8.056;2023-05-07T06:51:32;27.02;;;14.57;;
74624;SDS011;63131;52.298;8.056;2023-05-07T06:53:57;26.45;;;13.63;;
74624;SDS011;63131;52.298;8.056;2023-05-07T06:56:22;25.33;;;13.23;;
74624;SDS011;63131;52.298;8.056;2023-05-07T06:58:48;24.45;;;12.98;;
74624;SDS011;63131;52.298;8.056;2023-05-07T07:01:13;26.98;;;13.00;;
74624;SDS011;63131;52.298;8.056;2023-05-07T07:03:39;25.25;;;12.88;;
74624;SDS011;63131;52.298;8.056;2023-05-07T07:06:04;24.60;;;13.80;;
74624;SDS011;63131;52.298;8.056;2023-05-07T07:08:30;25.90;;;13.65;;
74624;SDS011;63131;52.298;8.056;2023-05-07T07:10:55;22.40;;;13.00;;
74624;SDS011;63131;52.298;8.056;2023-05-07T07:13:21;23.33;;;12.95;;
74624;SDS011;63131;52.298;8.056;2023-05-07T07:15:46;23.90;;;13.88;;
74624;SDS011;63131;52.298;8.056;2023-05-07T07:20:37;20.83;;;12.70;;
74624;SDS011;63131;52.298;8.056;2023-05-07T07:25:27;23.80;;;10.95;;
74624;SDS011;63131;52.298;8.056;2023-05-07T07:30:18;18.87;;;11.07;;
74624;SDS011;63131;52.298;8.056;2023-05-07T07:32:43;22.02;;;11.60;;
74624;SDS011;63131;52.298;8.056;2023-05-07T07:35:09;20.80;;;10.65;;
74624;SDS011;63131;52.298;8.056;2023-05-07T07:37:34;18.02;;;8.93;;
74624;SDS011;63131;52.298;8.056;2023-05-07T07:40:00;19.77;;;10.23;;
74624;SDS011;63131;52.298;8.056;2023-05-07T07:42:25;22.15;;;11.18;;
74624;SDS011;63131;52.298;8.056;2023-05-07T07:44:51;21.13;;;11.70;;
74624;SDS011;63131;52.298;8.056;2023-05-07T07:47:17;19.13;;;11.02;;
74624;SDS011;63131;52.298;8.056;2023-05-07T07:52:08;19.47;;;9.70;;
74624;SDS011;63131;52.298;8.056;2023-05-07T07:56:58;18.98;;;10.88;;
74624;SDS011;63131;52.298;8.056;2023-05-07T08:01:49;17.40;;;9.53;;
74624;SDS011;63131;52.298;8.056;2023-05-07T08:06:40;20.05;;;10.73;;
74624;SDS011;63131;52.298;8.056;2023-05-07T08:09:06;17.50;;;9.63;;
74624;SDS011;63131;52.298;8.056;2023-05-07T08:11:31;17.60;;;10.30;;
74624;SDS011;63131;52.298;8.056;2023-05-07T08:16:21;18.30;;;9.60;;
74624;SDS011;63131;52.298;8.056;2023-05-07T08:18:47;16.38;;;8.98;;
74624;SDS011;63131;52.298;8.056;2023-05-07T08:23:37;17.73;;;9.87;;
74624;SDS011;63131;52.298;8.056;2023-05-07T08:26:03;17.58;;;9.43;;
74624;SDS011;63131;52.298;8.056;2023-05-07T08:28:28;18.05;;;10.32;;
74624;SDS011;63131;52.298;8.056;2023-05-07T08:33:19;15.77;;;8.40;;
74624;SDS011;63131;52.298;8.056;2023-05-07T08:38:09;16.63;;;8.90;;
74624;SDS011;63131;52.298;8.056;2023-05-07T08:43:01;17.98;;;8.50;;
74624;SDS011;63131;52.298;8.056;2023-05-07T08:47:54;16.00;;;8.83;;
74624;SDS011;63131;52.298;8.056;2023-05-07T08:50:23;16.00;;;9.73;;
74624;SDS011;63131;52.298;8.056;2023-05-07T08:55:14;15.63;;;8.50;;
74624;SDS011;63131;52.298;8.056;2023-05-07T09:00:05;16.57;;;8.27;;
74624;SDS011;63131;52.298;8.056;2023-05-07T09:02:32;18.30;;;9.57;;
74624;SDS011;63131;52.298;8.056;2023-05-07T09:07:23;15.63;;;9.30;;
74624;SDS011;63131;52.298;8.056;2023-05-07T09:09:48;13.95;;;8.02;;
74624;SDS011;63131;52.298;8.056;2023-05-07T09:14:39;15.50;;;8.83;;
74624;SDS011;63131;52.298;8.056;2023-05-07T09:19:30;18.00;;;8.77;;
74624;SDS011;63131;52.298;8.056;2023-05-07T09:24:25;16.98;;;9.27;;
74624;SDS011;63131;52.298;8.056;2023-05-07T09:29:16;15.70;;;7.90;;
74624;SDS011;63131;52.298;8.056;2023-05-07T09:34:08;14.70;;;8.17;;
74624;SDS011;63131;52.298;8.056;2023-05-07T09:39:01;14.90;;;8.10;;
74624;SDS011;63131;52.298;8.056;2023-05-07T09:41:27;16.92;;;8.75;;
74624;SDS011;63131;52.298;8.056;2023-05-07T09:43:55;14.27;;;7.40;;
74624;SDS011;63131;52.298;8.056;2023-05-07T09:46:23;16.33;;;9.20;;
74624;SDS011;63131;52.298;8.056;2023-05-07T09:48:56;15.18;;;8.23;;
74624;SDS011;63131;52.298;8.056;2023-05-07T09:51:30;14.60;;;8.55;;
74624;SDS011;63131;52.298;8.056;2023-05-07T09:54:01;14.63;;;8.57;;
74624;SDS011;63131;52.298;8.056;2023-05-07T09:56:29;13.85;;;7.60;;
74624;SDS011;63131;52.298;8.056;2023-05-07T09:58:54;16.40;;;8.30;;
74624;SDS011;63131;52.298;8.056;2023-05-07T10:01:21;14.35;;;9.00;;
74624;SDS011;63131;52.298;8.056;2023-05-07T10:03:47;14.82;;;8.32;;
74624;SDS011;63131;52.298;8.056;2023-05-07T10:06:15;14.00;;;8.43;;
74624;SDS011;63131;52.298;8.056;2023-05-07T10:08:40;14.98;;;9.57;;
74624;SDS011;63131;52.298;8.056;2023-05-07T10:11:07;14.73;;;7.88;;
74624;SDS011;63131;52.298;8.056;2023-05-07T10:13:34;13.05;;;6.93;;
74624;SDS011;63131;52.298;8.056;2023-05-07T10:16:01;13.50;;;7.35;;
74624;SDS011;63131;52.298;8.056;2023-05-07T10:18:28;16.02;;;8.52;;
74624;SDS011;63131;52.298;8.056;2023-05-07T10:20:59;15.23;;;8.27;;
74624;SDS011;63131;52.298;8.056;2023-05-07T10:23:28;14.75;;;8.00;;
74624;SDS011;63131;52.298;8.056;2023-05-07T10:25:54;13.43;;;7.28;;
74624;SDS011;63131;52.298;8.056;2023-05-07T10:28:20;15.45;;;8.43;;
74624;SDS011;63131;52.298;8.056;2023-05-07T10:30:50;14.05;;;8.13;;
74624;SDS011;63131;52.298;8.056;2023-05-07T10:33:26;13.25;;;6.97;;
74624;SDS011;63131;52.298;8.056;2023-05-07T10:35:52;15.43;;;7.95;;
74624;SDS011;63131;52.298;8.056;2023-05-07T10:38:22;15.70;;;7.03;;
74624;SDS011;63131;52.298;8.056;2023-05-07T10:40:47;12.60;;;7.05;;
74624;SDS011;63131;52.298;8.056;2023-05-07T10:45:38;13.10;;;7.20;;
74624;SDS011;63131;52.298;8.056;2023-05-07T10:48:05;11.23;;;5.88;;
74624;SDS011;63131;52.298;8.056;2023-05-07T10:50:37;13.43;;;7.38;;
74624;SDS011;63131;52.298;8.056;2023-05-07T10:55:46;11.90;;;6.85;;
74624;SDS011;63131;52.298;8.056;2023-05-07T11:00:47;12.40;;;6.90;;
74624;SDS011;63131;52.298;8.056;2023-05-07T11:03:16;11.73;;;6.60;;
74624;SDS011;63131;52.298;8.056;2023-05-07T11:05:41;12.95;;;6.57;;
74624;SDS011;63131;52.298;8.056;2023-05-07T11:08:07;13.75;;;6.50;;
74624;SDS011;63131;52.298;8.056;2023-05-07T11:13:43;12.43;;;6.30;;
74624;SDS011;63131;52.298;8.056;2023-05-07T11:16:21;12.40;;;6.28;;
74624;SDS011;63131;52.298;8.056;2023-05-07T11:21:16;11.65;;;6.57;;
74624;SDS011;63131;52.298;8.056;2023-05-07T11:23:57;10.73;;;5.88;;
74624;SDS011;63131;52.298;8.056;2023-05-07T11:26:23;11.57;;;6.50;;
74624;SDS011;63131;52.298;8.056;2023-05-07T11:28:50;12.40;;;7.03;;
74624;SDS011;63131;52.298;8.056;2023-05-07T11:31:19;13.30;;;7.25;;
74624;SDS011;63131;52.298;8.056;2023-05-07T11:33:46;11.13;;;6.10;;
74624;SDS011;63131;52.298;8.056;2023-05-07T11:36:12;12.43;;;6.28;;
74624;SDS011;63131;52.298;8.056;2023-05-07T11:38:37;11.82;;;6.15;;
74624;SDS011;63131;52.298;8.056;2023-05-07T11:41:03;12.20;;;6.60;;
74624;SDS011;63131;52.298;8.056;2023-05-07T11:43:30;12.70;;;6.60;;
74624;SDS011;63131;52.298;8.056;2023-05-07T11:45:58;11.88;;;6.25;;
74624;SDS011;63131;52.298;8.056;2023-05-07T11:48:30;12.32;;;5.80;;
74624;SDS011;63131;52.298;8.056;2023-05-07T11:51:00;10.60;;;5.40;;
74624;SDS011;63131;52.298;8.056;2023-05-07T11:53:27;11.55;;;6.03;;
74624;SDS011;63131;52.298;8.056;2023-05-07T11:55:57;11.32;;;6.28;;
74624;SDS011;63131;52.298;8.056;2023-05-07T11:58:23;10.70;;;5.90;;
74624;SDS011;63131;52.298;8.056;2023-05-07T12:00:52;11.65;;;6.00;;
74624;SDS011;63131;52.298;8.056;2023-05-07T12:03:18;11.90;;;5.88;;
74624;SDS011;63131;52.298;8.056;2023-05-07T12:05:44;10.27;;;5.55;;
74624;SDS011;63131;52.298;8.056;2023-05-07T12:08:13;10.60;;;5.55;;
74624;SDS011;63131;52.298;8.056;2023-05-07T12:10:42;10.05;;;5.35;;
74624;SDS011;63131;52.298;8.056;2023-05-07T12:13:41;12.13;;;6.28;;
74624;SDS011;63131;52.298;8.056;2023-05-07T12:15:59;11.07;;;5.78;;
74624;SDS011;63131;52.298;8.056;2023-05-07T12:18:28;10.80;;;4.93;;
74624;SDS011;63131;52.298;8.056;2023-05-07T12:20:53;9.68;;;5.30;;
74624;SDS011;63131;52.298;8.056;2023-05-07T12:23:19;9.70;;;5.60;;
74624;SDS011;63131;52.298;8.056;2023-05-07T12:25:45;10.73;;;6.00;;
74624;SDS011;63131;52.298;8.056;2023-05-07T12:28:13;10.27;;;6.18;;
74624;SDS011;63131;52.298;8.056;2023-05-07T12:30:40;10.95;;;6.25;;
74624;SDS011;63131;52.298;8.056;2023-05-07T12:33:07;10.82;;;6.32;;
74624;SDS011;63131;52.298;8.056;2023-05-07T12:35:36;11.95;;;5.63;;
74624;SDS011;63131;52.298;8.056;2023-05-07T12:38:08;11.48;;;5.95;;
74624;SDS011;63131;52.298;8.056;2023-05-07T12:40:36;9.80;;;4.95;;
74624;SDS011;63131;52.298;8.056;2023-05-07T12:43:02;9.52;;;4.53;;
74624;SDS011;63131;52.298;8.056;2023-05-07T12:45:28;10.82;;;4.95;;
74624;SDS011;63131;52.298;8.056;2023-05-07T12:47:53;10.77;;;5.10;;
74624;SDS011;63131;52.298;8.056;2023-05-07T12:50:18;10.75;;;5.88;;
74624;SDS011;63131;52.298;8.056;2023-05-07T12:52:46;11.95;;;6.05;;
74624;SDS011;63131;52.298;8.056;2023-05-07T12:55:16;9.05;;;4.97;;
74624;SDS011;63131;52.298;8.056;2023-05-07T12:57:42;9.90;;;4.53;;
74624;SDS011;63131;52.298;8.056;2023-05-07T13:00:09;10.88;;;5.18;;
74624;SDS011;63131;52.298;8.056;2023-05-07T13:02:38;9.63;;;4.60;;
74624;SDS011;63131;52.298;8.056;2023-05-07T13:05:04;9.13;;;4.50;;
74624;SDS011;63131;52.298;8.056;2023-05-07T13:07:29;9.40;;;4.47;;
74624;SDS011;63131;52.298;8.056;2023-05-07T13:09:55;12.13;;;5.93;;
74624;SDS011;63131;52.298;8.056;2023-05-07T13:12:20;10.50;;;5.28;;
74624;SDS011;63131;52.298;8.056;2023-05-07T13:14:45;9.73;;;5.63;;
74624;SDS011;63131;52.298;8.056;2023-05-07T13:17:11;9.55;;;5.43;;
74624;SDS011;63131;52.298;8.056;2023-05-07T13:19:36;10.60;;;5.50;;
74624;SDS011;63131;52.298;8.056;2023-05-07T13:22:02;10.88;;;5.85;;
74624;SDS011;63131;52.298;8.056;2023-05-07T13:24:28;9.32;;;5.20;;
74624;SDS011;63131;52.298;8.056;2023-05-07T13:26:53;9.10;;;4.97;;
74624;SDS011;63131;52.298;8.056;2023-05-07T13:29:18;9.98;;;4.90;;
74624;SDS011;63131;52.298;8.056;2023-05-07T13:31:44;9.57;;;4.35;;
74624;SDS011;63131;52.298;8.056;2023-05-07T13:34:09;8.98;;;4.55;;
74624;SDS011;63131;52.298;8.056;2023-05-07T13:36:35;9.25;;;4.63;;
74624;SDS011;63131;52.298;8.056;2023-05-07T13:39:02;9.05;;;4.82;;
74624;SDS011;63131;52.298;8.056;2023-05-07T13:41:28;9.52;;;5.22;;
74624;SDS011;63131;52.298;8.056;2023-05-07T13:43:53;11.43;;;4.80;;
74624;SDS011;63131;52.298;8.056;2023-05-07T13:46:19;10.07;;;4.72;;
74624;SDS011;63131;52.298;8.056;2023-05-07T13:48:44;9.85;;;4.88;;
74624;SDS011;63131;52.298;8.056;2023-05-07T13:51:10;9.02;;;4.90;;
74624;SDS011;63131;52.298;8.056;2023-05-07T13:53:35;8.48;;;4.50;;
74624;SDS011;63131;52.298;8.056;2023-05-07T13:56:01;9.43;;;4.82;;
74624;SDS011;63131;52.298;8.056;2023-05-07T13:58:26;9.38;;;4.65;;
74624;SDS011;63131;52.298;8.056;2023-05-07T14:00:52;9.65;;;4.50;;
74624;SDS011;63131;52.298;8.056;2023-05-07T14:03:17;8.55;;;4.30;;
74624;SDS011;63131;52.298;8.056;2023-05-07T14:05:44;8.93;;;4.45;;
74624;SDS011;63131;52.298;8.056;2023-05-07T14:08:09;10.57;;;5.45;;
74624;SDS011;63131;52.298;8.056;2023-05-07T14:10:35;8.32;;;4.05;;
74624;SDS011;63131;52.298;8.056;2023-05-07T14:13:01;10.48;;;4.40;;
74624;SDS011;63131;52.298;8.056;2023-05-07T14:15:26;9.32;;;3.97;;
74624;SDS011;63131;52.298;8.056;2023-05-07T14:17:52;8.02;;;4.03;;
74624;SDS011;63131;52.298;8.056;2023-05-07T14:20:17;8.40;;;3.83;;
74624;SDS011;63131;52.298;8.056;2023-05-07T14:22:42;7.95;;;4.00;;
74624;SDS011;63131;52.298;8.056;2023-05-07T14:25:08;8.88;;;4.13;;
74624;SDS011;63131;52.298;8.056;2023-05-07T14:27:34;9.23;;;3.97;;
74624;SDS011;63131;52.298;8.056;2023-05-07T14:30:00;8.05;;;3.95;;
74624;SDS011;63131;52.298;8.056;2023-05-07T14:32:25;7.95;;;3.97;;
74624;SDS011;63131;52.298;8.056;2023-05-07T14:34:51;9.15;;;4.50;;
74624;SDS011;63131;52.298;8.056;2023-05-07T14:37:16;9.20;;;3.92;;
74624;SDS011;63131;52.298;8.056;2023-05-07T14:39:42;9.68;;;4.63;;
74624;SDS011;63131;52.298;8.056;2023-05-07T14:42:08;9.52;;;4.60;;
74624;SDS011;63131;52.298;8.056;2023-05-07T14:44:34;8.82;;;4.18;;
74624;SDS011;63131;52.298;8.056;2023-05-07T14:47:00;8.35;;;4.88;;
74624;SDS011;63131;52.298;8.056;2023-05-07T14:49:25;9.77;;;4.90;;
74624;SDS011;63131;52.298;8.056;2023-05-07T14:51:50;7.57;;;4.10;;
74624;SDS011;63131;52.298;8.056;2023-05-07T14:54:16;9.57;;;5.10;;
74624;SDS011;63131;52.298;8.056;2023-05-07T14:56:41;9.95;;;5.53;;
74624;SDS011;63131;52.298;8.056;2023-05-07T14:59:07;8.52;;;4.10;;
74624;SDS011;63131;52.298;8.056;2023-05-07T15:01:34;8.77;;;4.18;;
74624;SDS011;63131;52.298;8.056;2023-05-07T15:04:00;9.48;;;4.95;;
74624;SDS011;63131;52.298;8.056;2023-05-07T15:06:25;9.05;;;4.35;;
74624;SDS011;63131;52.298;8.056;2023-05-07T15:08:51;8.20;;;4.20;;
74624;SDS011;63131;52.298;8.056;2023-05-07T15:11:17;9.27;;;4.78;;
74624;SDS011;63131;52.298;8.056;2023-05-07T15:13:42;8.43;;;4.47;;
74624;SDS011;63131;52.298;8.056;2023-05-07T15:16:07;8.43;;;4.30;;
74624;SDS011;63131;52.298;8.056;2023-05-07T15:18:33;10.07;;;4.68;;
74624;SDS011;63131;52.298;8.056;2023-05-07T15:20:58;10.23;;;4.60;;
74624;SDS011;63131;52.298;8.056;2023-05-07T15:23:23;8.88;;;4.32;;
74624;SDS011;63131;52.298;8.056;2023-05-07T15:25:49;9.15;;;4.20;;
74624;SDS011;63131;52.298;8.056;2023-05-07T15:28:14;8.02;;;4.28;;
74624;SDS011;63131;52.298;8.056;2023-05-07T15:30:40;9.57;;;4.97;;
74624;SDS011;63131;52.298;8.056;2023-05-07T15:33:05;8.55;;;4.32;;
74624;SDS011;63131;52.298;8.056;2023-05-07T15:35:31;8.82;;;4.85;;
74624;SDS011;63131;52.298;8.056;2023-05-07T15:37:57;10.02;;;5.22;;
74624;SDS011;63131;52.298;8.056;2023-05-07T15:40:22;8.88;;;4.97;;
74624;SDS011;63131;52.298;8.056;2023-05-07T15:42:47;9.60;;;5.13;;
74624;SDS011;63131;52.298;8.056;2023-05-07T15:45:13;8.60;;;4.90;;
74624;SDS011;63131;52.298;8.056;2023-05-07T15:47:38;9.00;;;5.03;;
74624;SDS011;63131;52.298;8.056;2023-05-07T15:50:03;8.45;;;4.20;;
74624;SDS011;63131;52.298;8.056;2023-05-07T15:52:29;10.13;;;5.38;;
74624;SDS011;63131;52.298;8.056;2023-05-07T15:54:55;8.27;;;4.47;;